Aberdeen, Pennsylvania
Current Conditions -  °F | °C
As of 7:56 AM on Saturday 20 Dec 2014 (Local Time) from KMDT Reporting Station
Overcast Overcast  
Wind Chill: -5°   Ceiling: 3200
Heat Index: -1°   Visibility: 10mi
Dew Point: -7°   Wind: 7mph
Humidity: 64%   Direction: 300°WNW
Pressure: 30.31"   Gusts: NA
Location:  40.1674°N, 76.6045°W
Report Text: KMDT 201256Z 30006KT 10SM OVC032 M01/M07 A3031 RMK AO2 SLP267 T10111072
Loading
Personal Weather Stations






























Interactive Weather Map New forecast layout! Learn more

10-Day Weather Forecast

Advertisements
Track Severe Weather on mobile